Terminal Aerodrome Forecast
Issued by NWS

Home | Current Version | Previous Version | Text Only | Print | Product List | Glossary On
Versions: 1 2 3 4 5 6 7 8 9 10 11 12 13 14 15 16 17 18 19 20 21 22 23 24 25 26 27 28 29 30 31 32 33 34 35 36 37 38 39 40 41 42 43 44 45 46 47 48 49 50
000
FTUS45 KBOU 070703 AAA
TAFAPA
TAF AMD
KAPA 070703Z 0707/0806 VRB05KT P6SM FEW008 OVC018
     FM071000 03005KT 4SM BR BKN007 OVC012
     FM071500 07006KT P6SM FEW008 BKN017 BKN035
     FM071800 09009KT P6SM SCT035 BKN090
      TEMPO 0721/0801 VRB15G30KT 4SM -TSRA BKN020CB
     FM080100 05007KT P6SM VCTS SCT040CB BKN060 OVC090
      TEMPO 0801/0804 -SHRA BKN040
     FM080400 03006KT 5SM -SHRA SCT008 OVC015=

USA.gov is the U.S. government's official web portal to all federal, state and local government web resources and services.